Terminal Aerodrome Forecast
Issued by NWS Portland, OR

Home | Current Version | Previous Version | Text Only | Print | Product List | Glossary On
Versions: 1 2 3 4 5 6 7 8 9 10 11 12 13 14 15 16 17
000
FTUS46 KPQR 172339
TAFSLE
TAF
KSLE 172339Z 1800/1824 20015KT P6SM -RA FEW018 BKN025 OVC040
     FM180500 24010KT P6SM -SHRA BKN025 BKN050
     FM180800 24005KT P6SM SCT010 SCT250
     FM181400 VRB03KT 4SM BR SCT007 SCT200
     FM181800 04005KT P6SM SCT200=

USA.gov is the U.S. government's official web portal to all federal, state and local government web resources and services.